Charles B. Wheeler Downtown Airport
KMKC : rendu visible

Aérodrome :











RETROUVEZ-NOUS SUR...

 
LOGIN :

S'inscrire | Disclaimer

   EN    FR    IT 

 









Légende :    VFR   VFR Marginal   IFR   IFR Intensif   IFR Très Intensif
Visi : 
Plafond : 
>= 8 km
>= 3000ft
5 à 8 km
1000 à 3000 ft
1500m à 5 km
500 à 1000 ft
800 à 1500m
200 à 500 ft
< 800m
< 200 ft
Symboles :   Orages  Brouillard  Fortes neiges  Fortes précipitations  Vent > 20 kt






- Altitude de l'aérodrome : 759 ft
- Code IATA : MKC


KMKC - Charles B. Wheeler Downtown

DERNIER METAR :
  • 220054Z 20008KT 10SM CLR 02/M10 A3039 RMK AO2 SLP299 T00221100

METARs EXPIRÉS :
  • 212354Z 20011KT 10SM CLR 04/M09 A3040 RMK AO2 SLP302 T00441094 10072 20033 56022
  • 212254Z 20010KT 10SM CLR 06/M11 A3041 RMK AO2 SLP304 T00611106

TAF KMKC
Valide du 21 à 18h jusqu'au 22 à 18h UTC


211720Z 2118/2218 22013KT P6SM SKC
FM220000 19010KT P6SM SKC



MET'MAP, la Météo Aéronautique d'un coup d'oeil ! - Copyright ORBIFLY Décembre 2007 - Disclaimer

ORBIFLY MET'MAP TEAM :

Programmation & Développement : Alexandra Zaïnal
Sur une idée originale de : Baudouin d'Aumeries
Assistance à la programmation : Marc-Olivier Méhu
Soutien technique & logistique : Manuel Goepfert

Contact : metmap@orbifly.com




SOURCES & CREDITS :

   NOAA       Earth
Advisory